<?xml version="1.0" encoding="UTF-8" standalone="no" ?>
<gpx xmlns="http://www.topografix.com/GPX/1/1" xmlns:xsi="http://www.w3.org/2001/XMLSchema-instance" xsi:schemaLocation="http://www.topografix.com/GPX/1/1 http://www.topografix.com/GPX/1/1/gpx.xsd" version="1.1" creator="VisuGPX - https://www.visugpx.com">
  <metadata>
    <name>CURRENT TRACK- Pas du Verre Esparron</name>
    <desc><![CDATA[Montée au pas du verré redescente sur le lac d'Esparron.
Trace réalisée le 28 mai 2019 HW]]></desc>
  </metadata>
  <trk>
    <name><![CDATA[CURRENT TRACK- Pas du Verre Esparron-MNT]]></name>
    <trkseg>
      <trkpt lat="43.7512" lon="5.89755">
        <ele>302.054688</ele>
        <time>2019-05-29T08:28:30Z</time>
      </trkpt>
      <trkpt lat="43.75121" lon="5.89757">
        <ele>302.071564</ele>
        <time>2019-05-29T08:32:10Z</time>
      </trkpt>
      <trkpt lat="43.75327" lon="5.88913">
        <ele>306.496796</ele>
        <time>2019-05-29T08:51:04Z</time>
      </trkpt>
      <trkpt lat="43.75322" lon="5.88851">
        <ele>305.116669</ele>
        <time>2019-05-29T08:51:40Z</time>
      </trkpt>
      <trkpt lat="43.7532" lon="5.88782">
        <ele>303.307037</ele>
        <time>2019-05-29T08:51:52Z</time>
      </trkpt>
      <trkpt lat="43.75315" lon="5.88715">
        <ele>302.301788</ele>
        <time>2019-05-29T08:52:08Z</time>
      </trkpt>
      <trkpt lat="43.75299" lon="5.88651">
        <ele>303.308624</ele>
        <time>2019-05-29T08:52:23Z</time>
      </trkpt>
      <trkpt lat="43.75273" lon="5.88593">
        <ele>305.21405</ele>
        <time>2019-05-29T08:52:36Z</time>
      </trkpt>
      <trkpt lat="43.75249" lon="5.88532">
        <ele>304.033844</ele>
        <time>2019-05-29T08:53:30Z</time>
      </trkpt>
      <trkpt lat="43.75232" lon="5.88468">
        <ele>302.939331</ele>
        <time>2019-05-29T08:53:45Z</time>
      </trkpt>
      <trkpt lat="43.75213" lon="5.88404">
        <ele>303.281738</ele>
        <time>2019-05-29T08:54:02Z</time>
      </trkpt>
      <trkpt lat="43.75191" lon="5.8834">
        <ele>303.22699</ele>
        <time>2019-05-29T08:54:18Z</time>
      </trkpt>
      <trkpt lat="43.75194" lon="5.88275">
        <ele>303.288116</ele>
        <time>2019-05-29T08:54:40Z</time>
      </trkpt>
      <trkpt lat="43.75175" lon="5.88223">
        <ele>305.113434</ele>
        <time>2019-05-29T08:55:08Z</time>
      </trkpt>
      <trkpt lat="43.75128" lon="5.88212">
        <ele>307.774536</ele>
        <time>2019-05-29T08:55:27Z</time>
      </trkpt>
      <trkpt lat="43.7509" lon="5.88248">
        <ele>311.674896</ele>
        <time>2019-05-29T08:55:45Z</time>
      </trkpt>
      <trkpt lat="43.75072" lon="5.88305">
        <ele>312.954468</ele>
        <time>2019-05-29T08:56:03Z</time>
      </trkpt>
      <trkpt lat="43.75058" lon="5.88367">
        <ele>313.406616</ele>
        <time>2019-05-29T08:56:20Z</time>
      </trkpt>
      <trkpt lat="43.75046" lon="5.88428">
        <ele>317.717316</ele>
        <time>2019-05-29T08:56:38Z</time>
      </trkpt>
      <trkpt lat="43.75045" lon="5.8849">
        <ele>324.851563</ele>
        <time>2019-05-29T08:56:59Z</time>
      </trkpt>
      <trkpt lat="43.75005" lon="5.88506">
        <ele>329.845001</ele>
        <time>2019-05-29T08:57:21Z</time>
      </trkpt>
      <trkpt lat="43.74958" lon="5.88506">
        <ele>331.88739</ele>
        <time>2019-05-29T08:57:40Z</time>
      </trkpt>
      <trkpt lat="43.74913" lon="5.88535">
        <ele>336.662262</ele>
        <time>2019-05-29T08:58:01Z</time>
      </trkpt>
      <trkpt lat="43.74871" lon="5.88567">
        <ele>341.98349</ele>
        <time>2019-05-29T08:58:22Z</time>
      </trkpt>
      <trkpt lat="43.74836" lon="5.8861">
        <ele>345.625</ele>
        <time>2019-05-29T08:58:43Z</time>
      </trkpt>
      <trkpt lat="43.74807" lon="5.88658">
        <ele>349.027222</ele>
        <time>2019-05-29T08:59:04Z</time>
      </trkpt>
      <trkpt lat="43.74769" lon="5.88646">
        <ele>347.406616</ele>
        <time>2019-05-29T08:59:24Z</time>
      </trkpt>
      <trkpt lat="43.74747" lon="5.88588">
        <ele>345.375793</ele>
        <time>2019-05-29T08:59:44Z</time>
      </trkpt>
      <trkpt lat="43.74716" lon="5.88556">
        <ele>347.539001</ele>
        <time>2019-05-29T09:00:04Z</time>
      </trkpt>
      <trkpt lat="43.74671" lon="5.88554">
        <ele>351.214325</ele>
        <time>2019-05-29T09:00:25Z</time>
      </trkpt>
      <trkpt lat="43.74635" lon="5.88587">
        <ele>360.071869</ele>
        <time>2019-05-29T09:00:47Z</time>
      </trkpt>
      <trkpt lat="43.74592" lon="5.88576">
        <ele>364.176636</ele>
        <time>2019-05-29T09:01:11Z</time>
      </trkpt>
      <trkpt lat="43.74548" lon="5.88553">
        <ele>365.084991</ele>
        <time>2019-05-29T09:01:34Z</time>
      </trkpt>
      <trkpt lat="43.74502" lon="5.88544">
        <ele>367.186829</ele>
        <time>2019-05-29T09:01:56Z</time>
      </trkpt>
      <trkpt lat="43.74457" lon="5.88554">
        <ele>373.079865</ele>
        <time>2019-05-29T09:02:18Z</time>
      </trkpt>
      <trkpt lat="43.74424" lon="5.88555">
        <ele>376.840576</ele>
        <time>2019-05-29T09:02:39Z</time>
      </trkpt>
      <trkpt lat="43.74457" lon="5.88508">
        <ele>365.963867</ele>
        <time>2019-05-29T09:02:59Z</time>
      </trkpt>
      <trkpt lat="43.74497" lon="5.88476">
        <ele>369.072601</ele>
        <time>2019-05-29T09:03:20Z</time>
      </trkpt>
      <trkpt lat="43.7454" lon="5.88462">
        <ele>368.381744</ele>
        <time>2019-05-29T09:03:41Z</time>
      </trkpt>
      <trkpt lat="43.74578" lon="5.88427">
        <ele>371.729156</ele>
        <time>2019-05-29T09:04:03Z</time>
      </trkpt>
      <trkpt lat="43.74568" lon="5.88367">
        <ele>381.067993</ele>
        <time>2019-05-29T09:04:25Z</time>
      </trkpt>
      <trkpt lat="43.74563" lon="5.88302">
        <ele>378.278229</ele>
        <time>2019-05-29T09:04:47Z</time>
      </trkpt>
      <trkpt lat="43.74538" lon="5.88261">
        <ele>383.716034</ele>
        <time>2019-05-29T09:05:09Z</time>
      </trkpt>
      <trkpt lat="43.74494" lon="5.8829">
        <ele>390.702332</ele>
        <time>2019-05-29T09:05:32Z</time>
      </trkpt>
      <trkpt lat="43.74453" lon="5.88324">
        <ele>397.611816</ele>
        <time>2019-05-29T09:05:56Z</time>
      </trkpt>
      <trkpt lat="43.74413" lon="5.88353">
        <ele>395.301453</ele>
        <time>2019-05-29T09:06:20Z</time>
      </trkpt>
      <trkpt lat="43.74388" lon="5.88408">
        <ele>400.37561</ele>
        <time>2019-05-29T09:06:42Z</time>
      </trkpt>
      <trkpt lat="43.74353" lon="5.88449">
        <ele>403.068848</ele>
        <time>2019-05-29T09:07:04Z</time>
      </trkpt>
      <trkpt lat="43.74313" lon="5.88479">
        <ele>401.772736</ele>
        <time>2019-05-29T09:07:26Z</time>
      </trkpt>
      <trkpt lat="43.74299" lon="5.88536">
        <ele>408.226959</ele>
        <time>2019-05-29T09:07:48Z</time>
      </trkpt>
      <trkpt lat="43.74286" lon="5.88597">
        <ele>410.520996</ele>
        <time>2019-05-29T09:08:09Z</time>
      </trkpt>
      <trkpt lat="43.74252" lon="5.88641">
        <ele>414.048889</ele>
        <time>2019-05-29T09:08:32Z</time>
      </trkpt>
      <trkpt lat="43.7422" lon="5.88686">
        <ele>414.977234</ele>
        <time>2019-05-29T09:08:54Z</time>
      </trkpt>
      <trkpt lat="43.74182" lon="5.88725">
        <ele>417.372284</ele>
        <time>2019-05-29T09:09:16Z</time>
      </trkpt>
      <trkpt lat="43.74137" lon="5.88741">
        <ele>421.148315</ele>
        <time>2019-05-29T09:09:38Z</time>
      </trkpt>
      <trkpt lat="43.74089" lon="5.88752">
        <ele>425.558136</ele>
        <time>2019-05-29T09:10:02Z</time>
      </trkpt>
      <trkpt lat="43.74042" lon="5.88746">
        <ele>428.217896</ele>
        <time>2019-05-29T09:10:24Z</time>
      </trkpt>
      <trkpt lat="43.74028" lon="5.88692">
        <ele>424.805695</ele>
        <time>2019-05-29T09:10:46Z</time>
      </trkpt>
      <trkpt lat="43.73998" lon="5.88644">
        <ele>427.716095</ele>
        <time>2019-05-29T09:11:08Z</time>
      </trkpt>
      <trkpt lat="43.73953" lon="5.88639">
        <ele>431.909424</ele>
        <time>2019-05-29T09:11:31Z</time>
      </trkpt>
      <trkpt lat="43.7392" lon="5.88681">
        <ele>434.553955</ele>
        <time>2019-05-29T09:22:33Z</time>
      </trkpt>
      <trkpt lat="43.73911" lon="5.88743">
        <ele>436.569489</ele>
        <time>2019-05-29T09:22:56Z</time>
      </trkpt>
      <trkpt lat="43.73912" lon="5.88809">
        <ele>438.71463</ele>
        <time>2019-05-29T09:23:20Z</time>
      </trkpt>
      <trkpt lat="43.73913" lon="5.88875">
        <ele>443.736755</ele>
        <time>2019-05-29T09:23:41Z</time>
      </trkpt>
      <trkpt lat="43.7388" lon="5.88914">
        <ele>447.259735</ele>
        <time>2019-05-29T09:24:16Z</time>
      </trkpt>
      <trkpt lat="43.73831" lon="5.88917">
        <ele>449.462891</ele>
        <time>2019-05-29T09:24:41Z</time>
      </trkpt>
      <trkpt lat="43.7379" lon="5.88882">
        <ele>448.249298</ele>
        <time>2019-05-29T09:25:02Z</time>
      </trkpt>
      <trkpt lat="43.7375" lon="5.88916">
        <ele>456.51001</ele>
        <time>2019-05-29T09:25:22Z</time>
      </trkpt>
      <trkpt lat="43.73713" lon="5.88881">
        <ele>455.398804</ele>
        <time>2019-05-29T09:25:42Z</time>
      </trkpt>
      <trkpt lat="43.73667" lon="5.88885">
        <ele>458.45517</ele>
        <time>2019-05-29T09:26:04Z</time>
      </trkpt>
      <trkpt lat="43.73626" lon="5.88917">
        <ele>461.613281</ele>
        <time>2019-05-29T09:26:24Z</time>
      </trkpt>
      <trkpt lat="43.73589" lon="5.88952">
        <ele>464.784058</ele>
        <time>2019-05-29T09:26:43Z</time>
      </trkpt>
      <trkpt lat="43.73552" lon="5.88989">
        <ele>465.464996</ele>
        <time>2019-05-29T09:27:03Z</time>
      </trkpt>
      <trkpt lat="43.73523" lon="5.8904">
        <ele>468.230804</ele>
        <time>2019-05-29T09:27:22Z</time>
      </trkpt>
      <trkpt lat="43.73485" lon="5.89077">
        <ele>470.685486</ele>
        <time>2019-05-29T09:27:39Z</time>
      </trkpt>
      <trkpt lat="43.73446" lon="5.89109">
        <ele>470.617615</ele>
        <time>2019-05-29T09:27:57Z</time>
      </trkpt>
      <trkpt lat="43.73407" lon="5.89144">
        <ele>466.054565</ele>
        <time>2019-05-29T09:28:12Z</time>
      </trkpt>
      <trkpt lat="43.7336" lon="5.89163">
        <ele>459.284088</ele>
        <time>2019-05-29T09:28:28Z</time>
      </trkpt>
      <trkpt lat="43.73314" lon="5.89191">
        <ele>453.191254</ele>
        <time>2019-05-29T09:28:37Z</time>
      </trkpt>
      <trkpt lat="43.7327" lon="5.89212">
        <ele>451.537292</ele>
        <time>2019-05-29T09:28:44Z</time>
      </trkpt>
      <trkpt lat="43.73226" lon="5.89234">
        <ele>450.13031</ele>
        <time>2019-05-29T09:28:51Z</time>
      </trkpt>
      <trkpt lat="43.73183" lon="5.89255">
        <ele>447.735352</ele>
        <time>2019-05-29T09:28:57Z</time>
      </trkpt>
      <trkpt lat="43.73136" lon="5.8926">
        <ele>443.123413</ele>
        <time>2019-05-29T09:29:06Z</time>
      </trkpt>
      <trkpt lat="43.73092" lon="5.8928">
        <ele>439.531128</ele>
        <time>2019-05-29T09:29:16Z</time>
      </trkpt>
      <trkpt lat="43.73047" lon="5.89259">
        <ele>432.723999</ele>
        <time>2019-05-29T09:29:29Z</time>
      </trkpt>
      <trkpt lat="43.73004" lon="5.89232">
        <ele>428.190002</ele>
        <time>2019-05-29T09:29:37Z</time>
      </trkpt>
      <trkpt lat="43.72957" lon="5.89228">
        <ele>426.061249</ele>
        <time>2019-05-29T09:29:44Z</time>
      </trkpt>
      <trkpt lat="43.72906" lon="5.89222">
        <ele>423.249481</ele>
        <time>2019-05-29T09:29:51Z</time>
      </trkpt>
      <trkpt lat="43.72857" lon="5.89206">
        <ele>419.041901</ele>
        <time>2019-05-29T09:29:59Z</time>
      </trkpt>
      <trkpt lat="43.72811" lon="5.89191">
        <ele>414.264435</ele>
        <time>2019-05-29T09:30:07Z</time>
      </trkpt>
      <trkpt lat="43.7277" lon="5.89171">
        <ele>409.371002</ele>
        <time>2019-05-29T09:30:20Z</time>
      </trkpt>
      <trkpt lat="43.7275" lon="5.89152">
        <ele>406.91687</ele>
        <time>2019-05-29T09:30:39Z</time>
      </trkpt>
      <trkpt lat="43.72728" lon="5.89215">
        <ele>406.501831</ele>
        <time>2019-05-29T09:30:53Z</time>
      </trkpt>
      <trkpt lat="43.72681" lon="5.89239">
        <ele>402.445404</ele>
        <time>2019-05-29T09:31:03Z</time>
      </trkpt>
      <trkpt lat="43.72639" lon="5.89252">
        <ele>398.480743</ele>
        <time>2019-05-29T09:31:17Z</time>
      </trkpt>
      <trkpt lat="43.72615" lon="5.89295">
        <ele>398.232513</ele>
        <time>2019-05-29T09:31:37Z</time>
      </trkpt>
      <trkpt lat="43.72593" lon="5.89351">
        <ele>400.706238</ele>
        <time>2019-05-29T09:31:54Z</time>
      </trkpt>
      <trkpt lat="43.72559" lon="5.89392">
        <ele>400.176697</ele>
        <time>2019-05-29T09:32:11Z</time>
      </trkpt>
      <trkpt lat="43.72528" lon="5.89441">
        <ele>402.102173</ele>
        <time>2019-05-29T09:32:28Z</time>
      </trkpt>
      <trkpt lat="43.72506" lon="5.89498">
        <ele>405.662415</ele>
        <time>2019-05-29T09:32:44Z</time>
      </trkpt>
      <trkpt lat="43.72479" lon="5.89549">
        <ele>409.56134</ele>
        <time>2019-05-29T09:33:05Z</time>
      </trkpt>
      <trkpt lat="43.72455" lon="5.89609">
        <ele>411.351135</ele>
        <time>2019-05-29T09:33:28Z</time>
      </trkpt>
      <trkpt lat="43.72419" lon="5.89647">
        <ele>415.50116</ele>
        <time>2019-05-29T09:33:49Z</time>
      </trkpt>
      <trkpt lat="43.7238" lon="5.89685">
        <ele>419.276093</ele>
        <time>2019-05-29T09:34:11Z</time>
      </trkpt>
      <trkpt lat="43.72351" lon="5.89681">
        <ele>422.051788</ele>
        <time>2019-05-29T09:34:52Z</time>
      </trkpt>
      <trkpt lat="43.72322" lon="5.89687">
        <ele>424.587769</ele>
        <time>2019-05-29T09:35:16Z</time>
      </trkpt>
      <trkpt lat="43.72295" lon="5.89746">
        <ele>429.018127</ele>
        <time>2019-05-29T09:35:38Z</time>
      </trkpt>
      <trkpt lat="43.72272" lon="5.8981">
        <ele>434.703888</ele>
        <time>2019-05-29T09:36:01Z</time>
      </trkpt>
      <trkpt lat="43.72244" lon="5.89867">
        <ele>437.210724</ele>
        <time>2019-05-29T09:36:23Z</time>
      </trkpt>
      <trkpt lat="43.72216" lon="5.8992">
        <ele>437.975006</ele>
        <time>2019-05-29T09:36:42Z</time>
      </trkpt>
      <trkpt lat="43.72224" lon="5.89981">
        <ele>437.548431</ele>
        <time>2019-05-29T09:37:01Z</time>
      </trkpt>
      <trkpt lat="43.72244" lon="5.90042">
        <ele>432.902039</ele>
        <time>2019-05-29T09:37:16Z</time>
      </trkpt>
      <trkpt lat="43.72249" lon="5.90109">
        <ele>431.472504</ele>
        <time>2019-05-29T09:37:31Z</time>
      </trkpt>
      <trkpt lat="43.72252" lon="5.90176">
        <ele>433.258087</ele>
        <time>2019-05-29T09:37:42Z</time>
      </trkpt>
      <trkpt lat="43.72248" lon="5.90237">
        <ele>436.48584</ele>
        <time>2019-05-29T09:37:58Z</time>
      </trkpt>
      <trkpt lat="43.72264" lon="5.90298">
        <ele>440.016174</ele>
        <time>2019-05-29T09:38:16Z</time>
      </trkpt>
      <trkpt lat="43.72289" lon="5.90353">
        <ele>441.160004</ele>
        <time>2019-05-29T09:38:34Z</time>
      </trkpt>
      <trkpt lat="43.72326" lon="5.90404">
        <ele>447.892487</ele>
        <time>2019-05-29T09:38:56Z</time>
      </trkpt>
      <trkpt lat="43.72366" lon="5.90442">
        <ele>450.570862</ele>
        <time>2019-05-29T09:39:21Z</time>
      </trkpt>
      <trkpt lat="43.72393" lon="5.90499">
        <ele>455.756195</ele>
        <time>2019-05-29T09:39:48Z</time>
      </trkpt>
      <trkpt lat="43.72419" lon="5.90559">
        <ele>459.601715</ele>
        <time>2019-05-29T09:40:18Z</time>
      </trkpt>
      <trkpt lat="43.72445" lon="5.90617">
        <ele>458.460571</ele>
        <time>2019-05-29T09:40:36Z</time>
      </trkpt>
      <trkpt lat="43.72475" lon="5.9068">
        <ele>460.634827</ele>
        <time>2019-05-29T09:40:58Z</time>
      </trkpt>
      <trkpt lat="43.72508" lon="5.90727">
        <ele>463.86499</ele>
        <time>2019-05-29T09:41:23Z</time>
      </trkpt>
      <trkpt lat="43.72542" lon="5.90774">
        <ele>469.16922</ele>
        <time>2019-05-29T09:41:49Z</time>
      </trkpt>
      <trkpt lat="43.72573" lon="5.9083">
        <ele>474.191864</ele>
        <time>2019-05-29T09:42:19Z</time>
      </trkpt>
      <trkpt lat="43.72614" lon="5.90857">
        <ele>477.618195</ele>
        <time>2019-05-29T09:42:45Z</time>
      </trkpt>
      <trkpt lat="43.72665" lon="5.90865">
        <ele>480.582489</ele>
        <time>2019-05-29T09:43:12Z</time>
      </trkpt>
      <trkpt lat="43.72707" lon="5.90837">
        <ele>484.074158</ele>
        <time>2019-05-29T09:43:41Z</time>
      </trkpt>
      <trkpt lat="43.72748" lon="5.90868">
        <ele>488.049957</ele>
        <time>2019-05-29T09:44:08Z</time>
      </trkpt>
      <trkpt lat="43.72793" lon="5.90879">
        <ele>488.166382</ele>
        <time>2019-05-29T09:44:32Z</time>
      </trkpt>
      <trkpt lat="43.72841" lon="5.90873">
        <ele>491.232605</ele>
        <time>2019-05-29T09:45:01Z</time>
      </trkpt>
      <trkpt lat="43.72869" lon="5.90822">
        <ele>497.634491</ele>
        <time>2019-05-29T09:45:32Z</time>
      </trkpt>
      <trkpt lat="43.72902" lon="5.90772">
        <ele>504.556366</ele>
        <time>2019-05-29T09:46:05Z</time>
      </trkpt>
      <trkpt lat="43.72934" lon="5.90718">
        <ele>508.959595</ele>
        <time>2019-05-29T09:46:40Z</time>
      </trkpt>
      <trkpt lat="43.72981" lon="5.90695">
        <ele>518.19574</ele>
        <time>2019-05-29T09:47:32Z</time>
      </trkpt>
      <trkpt lat="43.73017" lon="5.90653">
        <ele>522.257446</ele>
        <time>2019-05-29T09:48:06Z</time>
      </trkpt>
      <trkpt lat="43.73042" lon="5.90647">
        <ele>527.58551</ele>
        <time>2019-05-29T09:48:41Z</time>
      </trkpt>
      <trkpt lat="43.73055" lon="5.90713">
        <ele>526.874817</ele>
        <time>2019-05-29T09:49:29Z</time>
      </trkpt>
      <trkpt lat="43.73092" lon="5.90751">
        <ele>530.398987</ele>
        <time>2019-05-29T09:49:52Z</time>
      </trkpt>
      <trkpt lat="43.73141" lon="5.90754">
        <ele>531.561401</ele>
        <time>2019-05-29T09:50:17Z</time>
      </trkpt>
      <trkpt lat="43.73189" lon="5.90761">
        <ele>534.409973</ele>
        <time>2019-05-29T09:50:44Z</time>
      </trkpt>
      <trkpt lat="43.73234" lon="5.90742">
        <ele>541.744995</ele>
        <time>2019-05-29T09:51:14Z</time>
      </trkpt>
      <trkpt lat="43.7327" lon="5.9078">
        <ele>547.691284</ele>
        <time>2019-05-29T09:51:50Z</time>
      </trkpt>
      <trkpt lat="43.73293" lon="5.90827">
        <ele>554.090637</ele>
        <time>2019-05-29T09:52:24Z</time>
      </trkpt>
      <trkpt lat="43.7333" lon="5.9086">
        <ele>560.012695</ele>
        <time>2019-05-29T09:52:55Z</time>
      </trkpt>
      <trkpt lat="43.73358" lon="5.90908">
        <ele>563.065125</ele>
        <time>2019-05-29T09:53:24Z</time>
      </trkpt>
      <trkpt lat="43.73396" lon="5.90941">
        <ele>567.660828</ele>
        <time>2019-05-29T09:53:55Z</time>
      </trkpt>
      <trkpt lat="43.73431" lon="5.90981">
        <ele>571.648743</ele>
        <time>2019-05-29T09:54:23Z</time>
      </trkpt>
      <trkpt lat="43.73469" lon="5.91015">
        <ele>574.018677</ele>
        <time>2019-05-29T09:54:50Z</time>
      </trkpt>
      <trkpt lat="43.73509" lon="5.91046">
        <ele>577.716736</ele>
        <time>2019-05-29T09:55:13Z</time>
      </trkpt>
      <trkpt lat="43.73548" lon="5.91079">
        <ele>581.639221</ele>
        <time>2019-05-29T09:55:36Z</time>
      </trkpt>
      <trkpt lat="43.73565" lon="5.91131">
        <ele>578.580444</ele>
        <time>2019-05-29T09:59:19Z</time>
      </trkpt>
      <trkpt lat="43.73546" lon="5.91189">
        <ele>582.208191</ele>
        <time>2019-05-29T10:00:06Z</time>
      </trkpt>
      <trkpt lat="43.73535" lon="5.9125">
        <ele>586.283325</ele>
        <time>2019-05-29T10:00:31Z</time>
      </trkpt>
      <trkpt lat="43.73506" lon="5.91299">
        <ele>585.804688</ele>
        <time>2019-05-29T10:00:54Z</time>
      </trkpt>
      <trkpt lat="43.73483" lon="5.91353">
        <ele>587.607117</ele>
        <time>2019-05-29T10:01:11Z</time>
      </trkpt>
      <trkpt lat="43.73461" lon="5.9141">
        <ele>586.599304</ele>
        <time>2019-05-29T10:01:27Z</time>
      </trkpt>
      <trkpt lat="43.73431" lon="5.91458">
        <ele>589.32135</ele>
        <time>2019-05-29T10:01:39Z</time>
      </trkpt>
      <trkpt lat="43.7341" lon="5.91517">
        <ele>590.134827</ele>
        <time>2019-05-29T10:01:55Z</time>
      </trkpt>
      <trkpt lat="43.73382" lon="5.91573">
        <ele>590.535217</ele>
        <time>2019-05-29T10:02:07Z</time>
      </trkpt>
      <trkpt lat="43.73352" lon="5.91629">
        <ele>590.645325</ele>
        <time>2019-05-29T10:02:17Z</time>
      </trkpt>
      <trkpt lat="43.73323" lon="5.91681">
        <ele>590.293701</ele>
        <time>2019-05-29T10:02:25Z</time>
      </trkpt>
      <trkpt lat="43.73294" lon="5.91734">
        <ele>589.64856</ele>
        <time>2019-05-29T10:02:34Z</time>
      </trkpt>
      <trkpt lat="43.73261" lon="5.9178">
        <ele>588.731812</ele>
        <time>2019-05-29T10:02:45Z</time>
      </trkpt>
      <trkpt lat="43.7322" lon="5.91812">
        <ele>588.615967</ele>
        <time>2019-05-29T10:02:59Z</time>
      </trkpt>
      <trkpt lat="43.73177" lon="5.91828">
        <ele>590.57019</ele>
        <time>2019-05-29T10:03:13Z</time>
      </trkpt>
      <trkpt lat="43.73131" lon="5.9183">
        <ele>592.75</ele>
        <time>2019-05-29T10:03:25Z</time>
      </trkpt>
      <trkpt lat="43.73085" lon="5.91821">
        <ele>593.872498</ele>
        <time>2019-05-29T10:03:37Z</time>
      </trkpt>
      <trkpt lat="43.73042" lon="5.91838">
        <ele>593.778748</ele>
        <time>2019-05-29T10:03:46Z</time>
      </trkpt>
      <trkpt lat="43.73013" lon="5.91888">
        <ele>591.703186</ele>
        <time>2019-05-29T10:03:54Z</time>
      </trkpt>
      <trkpt lat="43.73042" lon="5.91933">
        <ele>591.510498</ele>
        <time>2019-05-29T10:04:06Z</time>
      </trkpt>
      <trkpt lat="43.73062" lon="5.91985">
        <ele>590.554138</ele>
        <time>2019-05-29T10:04:20Z</time>
      </trkpt>
      <trkpt lat="43.73044" lon="5.92049">
        <ele>589.084106</ele>
        <time>2019-05-29T10:04:29Z</time>
      </trkpt>
      <trkpt lat="43.73038" lon="5.92111">
        <ele>588.349915</ele>
        <time>2019-05-29T10:04:39Z</time>
      </trkpt>
      <trkpt lat="43.73021" lon="5.92171">
        <ele>585.979492</ele>
        <time>2019-05-29T10:04:49Z</time>
      </trkpt>
      <trkpt lat="43.72994" lon="5.9218">
        <ele>584.306152</ele>
        <time>2019-05-29T10:05:14Z</time>
      </trkpt>
      <trkpt lat="43.72957" lon="5.92226">
        <ele>581.662903</ele>
        <time>2019-05-29T10:05:28Z</time>
      </trkpt>
      <trkpt lat="43.7292" lon="5.92266">
        <ele>580.653992</ele>
        <time>2019-05-29T10:05:38Z</time>
      </trkpt>
      <trkpt lat="43.72887" lon="5.92309">
        <ele>578.048828</ele>
        <time>2019-05-29T10:05:47Z</time>
      </trkpt>
      <trkpt lat="43.72849" lon="5.92347">
        <ele>576.290344</ele>
        <time>2019-05-29T10:05:56Z</time>
      </trkpt>
      <trkpt lat="43.72816" lon="5.92397">
        <ele>575.786194</ele>
        <time>2019-05-29T10:06:06Z</time>
      </trkpt>
      <trkpt lat="43.72791" lon="5.92451">
        <ele>574.192749</ele>
        <time>2019-05-29T10:06:16Z</time>
      </trkpt>
      <trkpt lat="43.72762" lon="5.92502">
        <ele>573.916321</ele>
        <time>2019-05-29T10:06:29Z</time>
      </trkpt>
      <trkpt lat="43.72746" lon="5.92564">
        <ele>574.07251</ele>
        <time>2019-05-29T10:06:42Z</time>
      </trkpt>
      <trkpt lat="43.72727" lon="5.92625">
        <ele>575.832153</ele>
        <time>2019-05-29T10:06:54Z</time>
      </trkpt>
      <trkpt lat="43.72707" lon="5.92686">
        <ele>574.742493</ele>
        <time>2019-05-29T10:07:06Z</time>
      </trkpt>
      <trkpt lat="43.72684" lon="5.92743">
        <ele>574.674866</ele>
        <time>2019-05-29T10:07:17Z</time>
      </trkpt>
      <trkpt lat="43.7266" lon="5.92794">
        <ele>572.856506</ele>
        <time>2019-05-29T10:07:31Z</time>
      </trkpt>
      <trkpt lat="43.72629" lon="5.92843">
        <ele>571.967285</ele>
        <time>2019-05-29T10:07:41Z</time>
      </trkpt>
      <trkpt lat="43.72591" lon="5.92887">
        <ele>571.027405</ele>
        <time>2019-05-29T10:07:51Z</time>
      </trkpt>
      <trkpt lat="43.72546" lon="5.92907">
        <ele>571.486023</ele>
        <time>2019-05-29T10:08:04Z</time>
      </trkpt>
      <trkpt lat="43.72504" lon="5.92936">
        <ele>571.512146</ele>
        <time>2019-05-29T10:08:19Z</time>
      </trkpt>
      <trkpt lat="43.7246" lon="5.92959">
        <ele>572.25824</ele>
        <time>2019-05-29T10:08:32Z</time>
      </trkpt>
      <trkpt lat="43.72417" lon="5.92982">
        <ele>572.413818</ele>
        <time>2019-05-29T10:08:46Z</time>
      </trkpt>
      <trkpt lat="43.72373" lon="5.92994">
        <ele>572.16272</ele>
        <time>2019-05-29T10:08:59Z</time>
      </trkpt>
      <trkpt lat="43.72333" lon="5.93024">
        <ele>572.128601</ele>
        <time>2019-05-29T10:09:10Z</time>
      </trkpt>
      <trkpt lat="43.72291" lon="5.93053">
        <ele>571.218506</ele>
        <time>2019-05-29T10:09:20Z</time>
      </trkpt>
      <trkpt lat="43.72247" lon="5.93078">
        <ele>571.674805</ele>
        <time>2019-05-29T10:09:32Z</time>
      </trkpt>
      <trkpt lat="43.72203" lon="5.93103">
        <ele>574.709473</ele>
        <time>2019-05-29T10:09:45Z</time>
      </trkpt>
      <trkpt lat="43.72175" lon="5.93151">
        <ele>579.125183</ele>
        <time>2019-05-29T10:10:03Z</time>
      </trkpt>
      <trkpt lat="43.7215" lon="5.93206">
        <ele>580.950989</ele>
        <time>2019-05-29T10:10:22Z</time>
      </trkpt>
      <trkpt lat="43.72123" lon="5.9326">
        <ele>584.718872</ele>
        <time>2019-05-29T10:10:44Z</time>
      </trkpt>
      <trkpt lat="43.72087" lon="5.93316">
        <ele>587.570007</ele>
        <time>2019-05-29T10:11:08Z</time>
      </trkpt>
      <trkpt lat="43.72057" lon="5.93377">
        <ele>589.908691</ele>
        <time>2019-05-29T10:11:31Z</time>
      </trkpt>
      <trkpt lat="43.7205" lon="5.93447">
        <ele>591.001221</ele>
        <time>2019-05-29T10:11:50Z</time>
      </trkpt>
      <trkpt lat="43.72046" lon="5.93512">
        <ele>592.029907</ele>
        <time>2019-05-29T10:12:06Z</time>
      </trkpt>
      <trkpt lat="43.72043" lon="5.93576">
        <ele>592.492493</ele>
        <time>2019-05-29T10:12:21Z</time>
      </trkpt>
      <trkpt lat="43.72033" lon="5.9364">
        <ele>592.276794</ele>
        <time>2019-05-29T10:12:38Z</time>
      </trkpt>
      <trkpt lat="43.72006" lon="5.93692">
        <ele>591.99762</ele>
        <time>2019-05-29T10:12:54Z</time>
      </trkpt>
      <trkpt lat="43.71967" lon="5.93733">
        <ele>591.280823</ele>
        <time>2019-05-29T10:13:09Z</time>
      </trkpt>
      <trkpt lat="43.71932" lon="5.93778">
        <ele>590.292786</ele>
        <time>2019-05-29T10:13:19Z</time>
      </trkpt>
      <trkpt lat="43.71891" lon="5.93819">
        <ele>589.688843</ele>
        <time>2019-05-29T10:13:29Z</time>
      </trkpt>
      <trkpt lat="43.71857" lon="5.93861">
        <ele>589.804077</ele>
        <time>2019-05-29T10:13:40Z</time>
      </trkpt>
      <trkpt lat="43.71828" lon="5.93908">
        <ele>590.358276</ele>
        <time>2019-05-29T10:13:54Z</time>
      </trkpt>
      <trkpt lat="43.71798" lon="5.9396">
        <ele>589.740479</ele>
        <time>2019-05-29T10:14:06Z</time>
      </trkpt>
      <trkpt lat="43.71769" lon="5.94014">
        <ele>587.953369</ele>
        <time>2019-05-29T10:14:20Z</time>
      </trkpt>
      <trkpt lat="43.71739" lon="5.94076">
        <ele>584.559753</ele>
        <time>2019-05-29T10:14:31Z</time>
      </trkpt>
      <trkpt lat="43.71711" lon="5.94135">
        <ele>580.734985</ele>
        <time>2019-05-29T10:14:42Z</time>
      </trkpt>
      <trkpt lat="43.71687" lon="5.94191">
        <ele>577.363403</ele>
        <time>2019-05-29T10:14:49Z</time>
      </trkpt>
      <trkpt lat="43.71657" lon="5.94247">
        <ele>573.393738</ele>
        <time>2019-05-29T10:14:57Z</time>
      </trkpt>
      <trkpt lat="43.71631" lon="5.94302">
        <ele>569.159973</ele>
        <time>2019-05-29T10:15:04Z</time>
      </trkpt>
      <trkpt lat="43.71603" lon="5.94357">
        <ele>565.106628</ele>
        <time>2019-05-29T10:15:12Z</time>
      </trkpt>
      <trkpt lat="43.71573" lon="5.94414">
        <ele>562.656311</ele>
        <time>2019-05-29T10:15:19Z</time>
      </trkpt>
      <trkpt lat="43.71543" lon="5.94464">
        <ele>558.245117</ele>
        <time>2019-05-29T10:15:29Z</time>
      </trkpt>
      <trkpt lat="43.71501" lon="5.94494">
        <ele>554.157837</ele>
        <time>2019-05-29T10:15:39Z</time>
      </trkpt>
      <trkpt lat="43.71454" lon="5.94496">
        <ele>554.026306</ele>
        <time>2019-05-29T10:15:48Z</time>
      </trkpt>
      <trkpt lat="43.7141" lon="5.94473">
        <ele>551.758362</ele>
        <time>2019-05-29T10:15:56Z</time>
      </trkpt>
      <trkpt lat="43.71366" lon="5.94453">
        <ele>548.914001</ele>
        <time>2019-05-29T10:16:07Z</time>
      </trkpt>
      <trkpt lat="43.71324" lon="5.94435">
        <ele>543.718506</ele>
        <time>2019-05-29T10:16:18Z</time>
      </trkpt>
      <trkpt lat="43.71279" lon="5.94423">
        <ele>538.672791</ele>
        <time>2019-05-29T10:16:32Z</time>
      </trkpt>
      <trkpt lat="43.71263" lon="5.94461">
        <ele>538.997192</ele>
        <time>2019-05-29T10:16:53Z</time>
      </trkpt>
      <trkpt lat="43.71274" lon="5.94526">
        <ele>541.095459</ele>
        <time>2019-05-29T10:17:11Z</time>
      </trkpt>
      <trkpt lat="43.71285" lon="5.94593">
        <ele>544.825806</ele>
        <time>2019-05-29T10:17:35Z</time>
      </trkpt>
      <trkpt lat="43.713" lon="5.94661">
        <ele>545.372498</ele>
        <time>2019-05-29T10:18:02Z</time>
      </trkpt>
      <trkpt lat="43.71321" lon="5.94714">
        <ele>543.890686</ele>
        <time>2019-05-29T10:18:38Z</time>
      </trkpt>
      <trkpt lat="43.71367" lon="5.94705">
        <ele>545.81366</ele>
        <time>2019-05-29T10:18:52Z</time>
      </trkpt>
      <trkpt lat="43.71409" lon="5.94715">
        <ele>544.042175</ele>
        <time>2019-05-29T10:19:03Z</time>
      </trkpt>
      <trkpt lat="43.71431" lon="5.94773">
        <ele>540.717529</ele>
        <time>2019-05-29T10:19:16Z</time>
      </trkpt>
      <trkpt lat="43.71436" lon="5.94837">
        <ele>536.811951</ele>
        <time>2019-05-29T10:19:25Z</time>
      </trkpt>
      <trkpt lat="43.71426" lon="5.949">
        <ele>532.86499</ele>
        <time>2019-05-29T10:19:34Z</time>
      </trkpt>
      <trkpt lat="43.7144" lon="5.9495">
        <ele>531.081543</ele>
        <time>2019-05-29T10:19:51Z</time>
      </trkpt>
      <trkpt lat="43.71483" lon="5.94972">
        <ele>527.954224</ele>
        <time>2019-05-29T10:20:09Z</time>
      </trkpt>
      <trkpt lat="43.71497" lon="5.95013">
        <ele>521.785522</ele>
        <time>2019-05-29T10:20:39Z</time>
      </trkpt>
      <trkpt lat="43.71497" lon="5.95061">
        <ele>519.124023</ele>
        <time>2019-05-29T10:21:01Z</time>
      </trkpt>
      <trkpt lat="43.7154" lon="5.95085">
        <ele>510.819153</ele>
        <time>2019-05-29T10:21:16Z</time>
      </trkpt>
      <trkpt lat="43.71583" lon="5.9511">
        <ele>507.201752</ele>
        <time>2019-05-29T10:21:33Z</time>
      </trkpt>
      <trkpt lat="43.71622" lon="5.95144">
        <ele>502.57489</ele>
        <time>2019-05-29T10:21:51Z</time>
      </trkpt>
      <trkpt lat="43.71653" lon="5.95192">
        <ele>498.507996</ele>
        <time>2019-05-29T10:22:08Z</time>
      </trkpt>
      <trkpt lat="43.71685" lon="5.95243">
        <ele>494.485962</ele>
        <time>2019-05-29T10:22:21Z</time>
      </trkpt>
      <trkpt lat="43.71711" lon="5.95294">
        <ele>488.412476</ele>
        <time>2019-05-29T10:22:37Z</time>
      </trkpt>
      <trkpt lat="43.71755" lon="5.95314">
        <ele>487.048492</ele>
        <time>2019-05-29T10:22:49Z</time>
      </trkpt>
      <trkpt lat="43.71795" lon="5.95345">
        <ele>481.749207</ele>
        <time>2019-05-29T10:23:01Z</time>
      </trkpt>
      <trkpt lat="43.71837" lon="5.95371">
        <ele>480.025391</ele>
        <time>2019-05-29T10:23:15Z</time>
      </trkpt>
      <trkpt lat="43.71872" lon="5.95418">
        <ele>472.561279</ele>
        <time>2019-05-29T10:23:27Z</time>
      </trkpt>
      <trkpt lat="43.71916" lon="5.95442">
        <ele>474.254211</ele>
        <time>2019-05-29T10:23:37Z</time>
      </trkpt>
      <trkpt lat="43.71955" lon="5.9547">
        <ele>468.384857</ele>
        <time>2019-05-29T10:23:50Z</time>
      </trkpt>
      <trkpt lat="43.71992" lon="5.95507">
        <ele>458.902405</ele>
        <time>2019-05-29T10:24:06Z</time>
      </trkpt>
      <trkpt lat="43.72036" lon="5.95526">
        <ele>451.689423</ele>
        <time>2019-05-29T10:24:23Z</time>
      </trkpt>
      <trkpt lat="43.72063" lon="5.95555">
        <ele>444.702057</ele>
        <time>2019-05-29T10:24:39Z</time>
      </trkpt>
      <trkpt lat="43.72022" lon="5.95559">
        <ele>443.492584</ele>
        <time>2019-05-29T10:24:53Z</time>
      </trkpt>
      <trkpt lat="43.72064" lon="5.95584">
        <ele>440.418701</ele>
        <time>2019-05-29T10:25:13Z</time>
      </trkpt>
      <trkpt lat="43.72106" lon="5.95617">
        <ele>434.15271</ele>
        <time>2019-05-29T10:25:27Z</time>
      </trkpt>
      <trkpt lat="43.72113" lon="5.95679">
        <ele>427.115326</ele>
        <time>2019-05-29T10:25:45Z</time>
      </trkpt>
      <trkpt lat="43.72134" lon="5.95716">
        <ele>421.348236</ele>
        <time>2019-05-29T10:26:06Z</time>
      </trkpt>
      <trkpt lat="43.7218" lon="5.95726">
        <ele>417.610657</ele>
        <time>2019-05-29T10:26:23Z</time>
      </trkpt>
      <trkpt lat="43.72227" lon="5.95739">
        <ele>411.227875</ele>
        <time>2019-05-29T10:26:34Z</time>
      </trkpt>
      <trkpt lat="43.72272" lon="5.95759">
        <ele>407.217651</ele>
        <time>2019-05-29T10:26:45Z</time>
      </trkpt>
      <trkpt lat="43.72317" lon="5.95774">
        <ele>407.225647</ele>
        <time>2019-05-29T10:26:55Z</time>
      </trkpt>
      <trkpt lat="43.72352" lon="5.95822">
        <ele>400.681946</ele>
        <time>2019-05-29T10:27:08Z</time>
      </trkpt>
      <trkpt lat="43.72383" lon="5.95877">
        <ele>400.432892</ele>
        <time>2019-05-29T10:27:19Z</time>
      </trkpt>
      <trkpt lat="43.72408" lon="5.95934">
        <ele>395.129242</ele>
        <time>2019-05-29T10:27:44Z</time>
      </trkpt>
      <trkpt lat="43.72433" lon="5.9599">
        <ele>391.036285</ele>
        <time>2019-05-29T10:27:58Z</time>
      </trkpt>
      <trkpt lat="43.72462" lon="5.96043">
        <ele>387.742767</ele>
        <time>2019-05-29T10:28:11Z</time>
      </trkpt>
      <trkpt lat="43.72471" lon="5.96106">
        <ele>381.7052</ele>
        <time>2019-05-29T10:28:21Z</time>
      </trkpt>
      <trkpt lat="43.72479" lon="5.96169">
        <ele>378.554901</ele>
        <time>2019-05-29T10:28:31Z</time>
      </trkpt>
      <trkpt lat="43.72506" lon="5.96223">
        <ele>375.224182</ele>
        <time>2019-05-29T10:28:43Z</time>
      </trkpt>
      <trkpt lat="43.72552" lon="5.96234">
        <ele>374.076263</ele>
        <time>2019-05-29T10:28:54Z</time>
      </trkpt>
      <trkpt lat="43.72589" lon="5.96262">
        <ele>374.261566</ele>
        <time>2019-05-29T10:29:13Z</time>
      </trkpt>
      <trkpt lat="43.72633" lon="5.96272">
        <ele>374.982422</ele>
        <time>2019-05-29T10:29:30Z</time>
      </trkpt>
      <trkpt lat="43.72678" lon="5.96276">
        <ele>375.972656</ele>
        <time>2019-05-29T10:29:44Z</time>
      </trkpt>
      <trkpt lat="43.72724" lon="5.96265">
        <ele>379.112488</ele>
        <time>2019-05-29T10:29:59Z</time>
      </trkpt>
      <trkpt lat="43.72769" lon="5.96275">
        <ele>379.162354</ele>
        <time>2019-05-29T10:30:14Z</time>
      </trkpt>
      <trkpt lat="43.72816" lon="5.96282">
        <ele>382.826385</ele>
        <time>2019-05-29T10:30:34Z</time>
      </trkpt>
      <trkpt lat="43.72863" lon="5.96275">
        <ele>387.665741</ele>
        <time>2019-05-29T10:31:27Z</time>
      </trkpt>
      <trkpt lat="43.72895" lon="5.96232">
        <ele>396.037445</ele>
        <time>2019-05-29T10:33:42Z</time>
      </trkpt>
      <trkpt lat="43.72928" lon="5.96187">
        <ele>400.379211</ele>
        <time>2019-05-29T10:34:03Z</time>
      </trkpt>
      <trkpt lat="43.72963" lon="5.96149">
        <ele>403.344818</ele>
        <time>2019-05-29T10:34:21Z</time>
      </trkpt>
      <trkpt lat="43.73011" lon="5.96148">
        <ele>402.083435</ele>
        <time>2019-05-29T10:34:35Z</time>
      </trkpt>
      <trkpt lat="43.73055" lon="5.9612">
        <ele>401.820618</ele>
        <time>2019-05-29T10:34:53Z</time>
      </trkpt>
      <trkpt lat="43.73106" lon="5.96112">
        <ele>398.403381</ele>
        <time>2019-05-29T10:35:34Z</time>
      </trkpt>
      <trkpt lat="43.73155" lon="5.96129">
        <ele>392.138336</ele>
        <time>2019-05-29T10:36:33Z</time>
      </trkpt>
      <trkpt lat="43.73199" lon="5.96147">
        <ele>386.916016</ele>
        <time>2019-05-29T10:37:06Z</time>
      </trkpt>
      <trkpt lat="43.73241" lon="5.96138">
        <ele>387.207458</ele>
        <time>2019-05-29T10:38:07Z</time>
      </trkpt>
      <trkpt lat="43.73266" lon="5.96098">
        <ele>389.315491</ele>
        <time>2019-05-29T10:38:32Z</time>
      </trkpt>
      <trkpt lat="43.73283" lon="5.96041">
        <ele>390.513947</ele>
        <time>2019-05-29T10:38:48Z</time>
      </trkpt>
      <trkpt lat="43.73278" lon="5.95977">
        <ele>392.917908</ele>
        <time>2019-05-29T10:39:03Z</time>
      </trkpt>
      <trkpt lat="43.73285" lon="5.95919">
        <ele>392.459991</ele>
        <time>2019-05-29T10:39:20Z</time>
      </trkpt>
      <trkpt lat="43.73288" lon="5.95862">
        <ele>397.029999</ele>
        <time>2019-05-29T10:39:38Z</time>
      </trkpt>
      <trkpt lat="43.73304" lon="5.95803">
        <ele>397.215088</ele>
        <time>2019-05-29T10:39:57Z</time>
      </trkpt>
      <trkpt lat="43.73312" lon="5.95745">
        <ele>399.369263</ele>
        <time>2019-05-29T10:40:50Z</time>
      </trkpt>
      <trkpt lat="43.73326" lon="5.95685">
        <ele>395.484192</ele>
        <time>2019-05-29T10:41:10Z</time>
      </trkpt>
      <trkpt lat="43.73308" lon="5.9563">
        <ele>402.26236</ele>
        <time>2019-05-29T10:41:31Z</time>
      </trkpt>
      <trkpt lat="43.73304" lon="5.95567">
        <ele>404.148102</ele>
        <time>2019-05-29T10:41:49Z</time>
      </trkpt>
      <trkpt lat="43.73292" lon="5.95507">
        <ele>404.88092</ele>
        <time>2019-05-29T10:42:08Z</time>
      </trkpt>
      <trkpt lat="43.73273" lon="5.95452">
        <ele>405.516327</ele>
        <time>2019-05-29T10:42:30Z</time>
      </trkpt>
      <trkpt lat="43.73256" lon="5.95394">
        <ele>408.492218</ele>
        <time>2019-05-29T10:42:53Z</time>
      </trkpt>
      <trkpt lat="43.7326" lon="5.95365">
        <ele>404.585541</ele>
        <time>2019-05-29T10:44:00Z</time>
      </trkpt>
      <trkpt lat="43.73253" lon="5.95307">
        <ele>398.109375</ele>
        <time>2019-05-29T10:44:30Z</time>
      </trkpt>
      <trkpt lat="43.73265" lon="5.95244">
        <ele>388.483276</ele>
        <time>2019-05-29T10:46:02Z</time>
      </trkpt>
      <trkpt lat="43.73233" lon="5.95167">
        <ele>369.215576</ele>
        <time>2019-05-29T10:53:20Z</time>
      </trkpt>
      <trkpt lat="43.73211" lon="5.95123">
        <ele>366.387695</ele>
        <time>2019-05-29T10:54:01Z</time>
      </trkpt>
      <trkpt lat="43.73191" lon="5.95069">
        <ele>365.081085</ele>
        <time>2019-05-29T10:54:16Z</time>
      </trkpt>
      <trkpt lat="43.73143" lon="5.95078">
        <ele>368.379578</ele>
        <time>2019-05-29T10:54:29Z</time>
      </trkpt>
      <trkpt lat="43.73104" lon="5.95074">
        <ele>369.389679</ele>
        <time>2019-05-29T10:54:44Z</time>
      </trkpt>
      <trkpt lat="43.73084" lon="5.95018">
        <ele>367.000641</ele>
        <time>2019-05-29T10:54:59Z</time>
      </trkpt>
      <trkpt lat="43.73087" lon="5.94972">
        <ele>377.902954</ele>
        <time>2019-05-29T10:55:21Z</time>
      </trkpt>
      <trkpt lat="43.73135" lon="5.94998">
        <ele>366.088501</ele>
        <time>2019-05-29T10:55:36Z</time>
      </trkpt>
      <trkpt lat="43.73178" lon="5.94964">
        <ele>372.621796</ele>
        <time>2019-05-29T10:55:52Z</time>
      </trkpt>
      <trkpt lat="43.73225" lon="5.94971">
        <ele>370.675659</ele>
        <time>2019-05-29T10:56:05Z</time>
      </trkpt>
      <trkpt lat="43.73268" lon="5.94959">
        <ele>366.235443</ele>
        <time>2019-05-29T10:56:19Z</time>
      </trkpt>
      <trkpt lat="43.73296" lon="5.94908">
        <ele>364.003357</ele>
        <time>2019-05-29T10:56:36Z</time>
      </trkpt>
      <trkpt lat="43.73283" lon="5.94845">
        <ele>365.177094</ele>
        <time>2019-05-29T10:56:49Z</time>
      </trkpt>
      <trkpt lat="43.73262" lon="5.94786">
        <ele>364.710785</ele>
        <time>2019-05-29T10:57:02Z</time>
      </trkpt>
      <trkpt lat="43.73221" lon="5.94759">
        <ele>366.689606</ele>
        <time>2019-05-29T10:57:14Z</time>
      </trkpt>
      <trkpt lat="43.7317" lon="5.94741">
        <ele>369.690033</ele>
        <time>2019-05-29T10:57:30Z</time>
      </trkpt>
      <trkpt lat="43.7312" lon="5.94721">
        <ele>369.003387</ele>
        <time>2019-05-29T10:57:44Z</time>
      </trkpt>
      <trkpt lat="43.7307" lon="5.94708">
        <ele>369.4552</ele>
        <time>2019-05-29T10:57:57Z</time>
      </trkpt>
      <trkpt lat="43.73019" lon="5.9468">
        <ele>364.593811</ele>
        <time>2019-05-29T10:58:13Z</time>
      </trkpt>
      <trkpt lat="43.72977" lon="5.94648">
        <ele>366.46524</ele>
        <time>2019-05-29T10:58:26Z</time>
      </trkpt>
      <trkpt lat="43.72995" lon="5.94596">
        <ele>367.203003</ele>
        <time>2019-05-29T10:58:44Z</time>
      </trkpt>
      <trkpt lat="43.73045" lon="5.94599">
        <ele>367.332825</ele>
        <time>2019-05-29T10:58:58Z</time>
      </trkpt>
      <trkpt lat="43.73095" lon="5.94594">
        <ele>369.231201</ele>
        <time>2019-05-29T10:59:12Z</time>
      </trkpt>
      <trkpt lat="43.73145" lon="5.94597">
        <ele>369.237488</ele>
        <time>2019-05-29T10:59:22Z</time>
      </trkpt>
      <trkpt lat="43.73193" lon="5.94599">
        <ele>365.804199</ele>
        <time>2019-05-29T10:59:31Z</time>
      </trkpt>
      <trkpt lat="43.73229" lon="5.94562">
        <ele>365.539307</ele>
        <time>2019-05-29T10:59:43Z</time>
      </trkpt>
      <trkpt lat="43.73244" lon="5.94497">
        <ele>365.384003</ele>
        <time>2019-05-29T10:59:56Z</time>
      </trkpt>
      <trkpt lat="43.73234" lon="5.9443">
        <ele>367.59021</ele>
        <time>2019-05-29T11:00:07Z</time>
      </trkpt>
      <trkpt lat="43.73208" lon="5.94367">
        <ele>367.184296</ele>
        <time>2019-05-29T11:00:48Z</time>
      </trkpt>
      <trkpt lat="43.73238" lon="5.94313">
        <ele>364.453461</ele>
        <time>2019-05-29T11:01:10Z</time>
      </trkpt>
      <trkpt lat="43.73256" lon="5.94251">
        <ele>366.112885</ele>
        <time>2019-05-29T11:01:28Z</time>
      </trkpt>
      <trkpt lat="43.73292" lon="5.94203">
        <ele>364.156006</ele>
        <time>2019-05-29T11:01:42Z</time>
      </trkpt>
      <trkpt lat="43.73315" lon="5.94144">
        <ele>364.602203</ele>
        <time>2019-05-29T11:02:00Z</time>
      </trkpt>
      <trkpt lat="43.73333" lon="5.94079">
        <ele>363.867493</ele>
        <time>2019-05-29T11:02:14Z</time>
      </trkpt>
      <trkpt lat="43.73323" lon="5.94001">
        <ele>364.003052</ele>
        <time>2019-05-29T11:03:02Z</time>
      </trkpt>
      <trkpt lat="43.73297" lon="5.93944">
        <ele>365.737305</ele>
        <time>2019-05-29T11:03:30Z</time>
      </trkpt>
      <trkpt lat="43.73271" lon="5.93889">
        <ele>363.275085</ele>
        <time>2019-05-29T11:03:48Z</time>
      </trkpt>
      <trkpt lat="43.73243" lon="5.93836">
        <ele>364.116241</ele>
        <time>2019-05-29T11:04:02Z</time>
      </trkpt>
      <trkpt lat="43.73231" lon="5.93773">
        <ele>364.9375</ele>
        <time>2019-05-29T11:04:32Z</time>
      </trkpt>
      <trkpt lat="43.7325" lon="5.93742">
        <ele>367.876007</ele>
        <time>2019-05-29T11:04:55Z</time>
      </trkpt>
      <trkpt lat="43.73256" lon="5.93807">
        <ele>362.497223</ele>
        <time>2019-05-29T11:05:09Z</time>
      </trkpt>
      <trkpt lat="43.73275" lon="5.93863">
        <ele>361.032043</ele>
        <time>2019-05-29T11:05:29Z</time>
      </trkpt>
      <trkpt lat="43.73298" lon="5.93919">
        <ele>362.225494</ele>
        <time>2019-05-29T11:05:49Z</time>
      </trkpt>
      <trkpt lat="43.73301" lon="5.93921">
        <ele>361.870056</ele>
        <time>2019-05-29T11:06:28Z</time>
      </trkpt>
      <trkpt lat="43.73276" lon="5.93864">
        <ele>360.966461</ele>
        <time>2019-05-29T11:06:45Z</time>
      </trkpt>
      <trkpt lat="43.73257" lon="5.93804">
        <ele>362.514069</ele>
        <time>2019-05-29T11:07:00Z</time>
      </trkpt>
      <trkpt lat="43.73285" lon="5.93786">
        <ele>365.339386</ele>
        <time>2019-05-29T11:07:20Z</time>
      </trkpt>
      <trkpt lat="43.73328" lon="5.93815">
        <ele>366.772186</ele>
        <time>2019-05-29T11:07:40Z</time>
      </trkpt>
      <trkpt lat="43.7337" lon="5.93836">
        <ele>364.538757</ele>
        <time>2019-05-29T11:07:58Z</time>
      </trkpt>
      <trkpt lat="43.73383" lon="5.93842">
        <ele>364.852386</ele>
        <time>2019-05-29T11:08:21Z</time>
      </trkpt>
      <trkpt lat="43.73342" lon="5.93824">
        <ele>365.398621</ele>
        <time>2019-05-29T11:08:37Z</time>
      </trkpt>
      <trkpt lat="43.73301" lon="5.93795">
        <ele>367.811249</ele>
        <time>2019-05-29T11:08:48Z</time>
      </trkpt>
      <trkpt lat="43.7326" lon="5.93762">
        <ele>365.219757</ele>
        <time>2019-05-29T11:08:58Z</time>
      </trkpt>
      <trkpt lat="43.73247" lon="5.93704">
        <ele>371.740051</ele>
        <time>2019-05-29T11:09:19Z</time>
      </trkpt>
      <trkpt lat="43.73272" lon="5.93738">
        <ele>369.879547</ele>
        <time>2019-05-29T11:09:39Z</time>
      </trkpt>
      <trkpt lat="43.7331" lon="5.93778">
        <ele>374.210968</ele>
        <time>2019-05-29T11:09:56Z</time>
      </trkpt>
      <trkpt lat="43.73354" lon="5.9379">
        <ele>377.596741</ele>
        <time>2019-05-29T11:10:19Z</time>
      </trkpt>
      <trkpt lat="43.73401" lon="5.93798">
        <ele>384.41861</ele>
        <time>2019-05-29T11:10:45Z</time>
      </trkpt>
      <trkpt lat="43.73449" lon="5.93809">
        <ele>393.692657</ele>
        <time>2019-05-29T11:11:10Z</time>
      </trkpt>
      <trkpt lat="43.73493" lon="5.93807">
        <ele>396.648041</ele>
        <time>2019-05-29T11:11:35Z</time>
      </trkpt>
      <trkpt lat="43.73539" lon="5.93809">
        <ele>396.702148</ele>
        <time>2019-05-29T11:12:00Z</time>
      </trkpt>
      <trkpt lat="43.73571" lon="5.93766">
        <ele>392.302948</ele>
        <time>2019-05-29T11:12:25Z</time>
      </trkpt>
      <trkpt lat="43.73555" lon="5.93713">
        <ele>403.265656</ele>
        <time>2019-05-29T11:12:52Z</time>
      </trkpt>
      <trkpt lat="43.73525" lon="5.93666">
        <ele>411.209991</ele>
        <time>2019-05-29T11:13:23Z</time>
      </trkpt>
      <trkpt lat="43.73493" lon="5.9362">
        <ele>419.676392</ele>
        <time>2019-05-29T11:13:57Z</time>
      </trkpt>
      <trkpt lat="43.73454" lon="5.93585">
        <ele>428.534027</ele>
        <time>2019-05-29T11:14:29Z</time>
      </trkpt>
      <trkpt lat="43.73434" lon="5.93531">
        <ele>433.848511</ele>
        <time>2019-05-29T11:15:03Z</time>
      </trkpt>
      <trkpt lat="43.73431" lon="5.93468">
        <ele>441.374481</ele>
        <time>2019-05-29T11:15:37Z</time>
      </trkpt>
      <trkpt lat="43.7345" lon="5.93416">
        <ele>447.437347</ele>
        <time>2019-05-29T11:16:09Z</time>
      </trkpt>
      <trkpt lat="43.73479" lon="5.93367">
        <ele>448.723114</ele>
        <time>2019-05-29T11:16:39Z</time>
      </trkpt>
      <trkpt lat="43.73499" lon="5.93309">
        <ele>449.688629</ele>
        <time>2019-05-29T11:17:01Z</time>
      </trkpt>
      <trkpt lat="43.73521" lon="5.93256">
        <ele>455.014679</ele>
        <time>2019-05-29T11:17:21Z</time>
      </trkpt>
      <trkpt lat="43.73569" lon="5.93255">
        <ele>456.546509</ele>
        <time>2019-05-29T11:17:49Z</time>
      </trkpt>
      <trkpt lat="43.73598" lon="5.93219">
        <ele>459.442993</ele>
        <time>2019-05-29T11:18:14Z</time>
      </trkpt>
      <trkpt lat="43.73606" lon="5.93155">
        <ele>460.115936</ele>
        <time>2019-05-29T11:18:34Z</time>
      </trkpt>
      <trkpt lat="43.73613" lon="5.93099">
        <ele>465.089142</ele>
        <time>2019-05-29T11:18:52Z</time>
      </trkpt>
      <trkpt lat="43.73659" lon="5.93096">
        <ele>466.825653</ele>
        <time>2019-05-29T11:19:14Z</time>
      </trkpt>
      <trkpt lat="43.73705" lon="5.93076">
        <ele>470.345001</ele>
        <time>2019-05-29T11:19:34Z</time>
      </trkpt>
      <trkpt lat="43.73738" lon="5.93038">
        <ele>473.265808</ele>
        <time>2019-05-29T11:19:55Z</time>
      </trkpt>
      <trkpt lat="43.73745" lon="5.92975">
        <ele>473.384003</ele>
        <time>2019-05-29T11:20:17Z</time>
      </trkpt>
      <trkpt lat="43.73714" lon="5.92927">
        <ele>476.760468</ele>
        <time>2019-05-29T11:20:32Z</time>
      </trkpt>
      <trkpt lat="43.73676" lon="5.92881">
        <ele>477.283081</ele>
        <time>2019-05-29T11:20:44Z</time>
      </trkpt>
      <trkpt lat="43.73649" lon="5.9283">
        <ele>474.962494</ele>
        <time>2019-05-29T11:20:56Z</time>
      </trkpt>
      <trkpt lat="43.73616" lon="5.92784">
        <ele>475.625</ele>
        <time>2019-05-29T11:21:08Z</time>
      </trkpt>
      <trkpt lat="43.73583" lon="5.9274">
        <ele>473.912262</ele>
        <time>2019-05-29T11:21:22Z</time>
      </trkpt>
      <trkpt lat="43.73539" lon="5.9272">
        <ele>480.662323</ele>
        <time>2019-05-29T11:21:36Z</time>
      </trkpt>
      <trkpt lat="43.73544" lon="5.92686">
        <ele>483.828949</ele>
        <time>2019-05-29T11:21:55Z</time>
      </trkpt>
      <trkpt lat="43.73588" lon="5.92659">
        <ele>484.493683</ele>
        <time>2019-05-29T11:22:16Z</time>
      </trkpt>
      <trkpt lat="43.73631" lon="5.92636">
        <ele>488.143585</ele>
        <time>2019-05-29T11:22:36Z</time>
      </trkpt>
      <trkpt lat="43.73651" lon="5.92586">
        <ele>490.201141</ele>
        <time>2019-05-29T11:22:53Z</time>
      </trkpt>
      <trkpt lat="43.73612" lon="5.92551">
        <ele>490.146912</ele>
        <time>2019-05-29T11:23:05Z</time>
      </trkpt>
      <trkpt lat="43.73563" lon="5.92535">
        <ele>490.275635</ele>
        <time>2019-05-29T11:23:16Z</time>
      </trkpt>
      <trkpt lat="43.7355" lon="5.92489">
        <ele>487.520996</ele>
        <time>2019-05-29T11:23:25Z</time>
      </trkpt>
      <trkpt lat="43.73583" lon="5.92438">
        <ele>485.299988</ele>
        <time>2019-05-29T11:23:32Z</time>
      </trkpt>
      <trkpt lat="43.73615" lon="5.92392">
        <ele>486.888</ele>
        <time>2019-05-29T11:23:39Z</time>
      </trkpt>
      <trkpt lat="43.73662" lon="5.92381">
        <ele>487.134094</ele>
        <time>2019-05-29T11:23:57Z</time>
      </trkpt>
      <trkpt lat="43.73707" lon="5.92354">
        <ele>489.96286</ele>
        <time>2019-05-29T11:24:13Z</time>
      </trkpt>
      <trkpt lat="43.73753" lon="5.92335">
        <ele>492.940002</ele>
        <time>2019-05-29T11:24:32Z</time>
      </trkpt>
      <trkpt lat="43.73799" lon="5.92319">
        <ele>494.535065</ele>
        <time>2019-05-29T11:24:50Z</time>
      </trkpt>
      <trkpt lat="43.73836" lon="5.92287">
        <ele>495.76474</ele>
        <time>2019-05-29T11:25:07Z</time>
      </trkpt>
      <trkpt lat="43.73848" lon="5.92223">
        <ele>492.701385</ele>
        <time>2019-05-29T11:25:18Z</time>
      </trkpt>
      <trkpt lat="43.73856" lon="5.92161">
        <ele>488.310455</ele>
        <time>2019-05-29T11:25:25Z</time>
      </trkpt>
      <trkpt lat="43.73848" lon="5.92102">
        <ele>485.098755</ele>
        <time>2019-05-29T11:25:32Z</time>
      </trkpt>
      <trkpt lat="43.73804" lon="5.92086">
        <ele>486.842346</ele>
        <time>2019-05-29T11:25:39Z</time>
      </trkpt>
      <trkpt lat="43.73762" lon="5.92061">
        <ele>487.795197</ele>
        <time>2019-05-29T11:25:50Z</time>
      </trkpt>
      <trkpt lat="43.73767" lon="5.92006">
        <ele>489.601074</ele>
        <time>2019-05-29T11:26:07Z</time>
      </trkpt>
      <trkpt lat="43.73802" lon="5.91966">
        <ele>495.039886</ele>
        <time>2019-05-29T11:26:26Z</time>
      </trkpt>
      <trkpt lat="43.73848" lon="5.91957">
        <ele>496.46875</ele>
        <time>2019-05-29T11:26:48Z</time>
      </trkpt>
      <trkpt lat="43.7389" lon="5.91934">
        <ele>500.756927</ele>
        <time>2019-05-29T11:27:10Z</time>
      </trkpt>
      <trkpt lat="43.73935" lon="5.91921">
        <ele>501.902924</ele>
        <time>2019-05-29T11:27:33Z</time>
      </trkpt>
      <trkpt lat="43.73933" lon="5.91859">
        <ele>505.89624</ele>
        <time>2019-05-29T11:27:53Z</time>
      </trkpt>
      <trkpt lat="43.73924" lon="5.91797">
        <ele>509.466217</ele>
        <time>2019-05-29T11:28:09Z</time>
      </trkpt>
      <trkpt lat="43.73955" lon="5.91752">
        <ele>511.671997</ele>
        <time>2019-05-29T11:28:29Z</time>
      </trkpt>
      <trkpt lat="43.73999" lon="5.91738">
        <ele>510.803314</ele>
        <time>2019-05-29T11:28:50Z</time>
      </trkpt>
      <trkpt lat="43.74028" lon="5.917">
        <ele>508.89624</ele>
        <time>2019-05-29T11:29:07Z</time>
      </trkpt>
      <trkpt lat="43.74016" lon="5.91639">
        <ele>511.235474</ele>
        <time>2019-05-29T11:29:22Z</time>
      </trkpt>
      <trkpt lat="43.74054" lon="5.91604">
        <ele>507.563904</ele>
        <time>2019-05-29T11:29:30Z</time>
      </trkpt>
      <trkpt lat="43.74101" lon="5.91605">
        <ele>501.262848</ele>
        <time>2019-05-29T11:29:38Z</time>
      </trkpt>
      <trkpt lat="43.74144" lon="5.91617">
        <ele>493.541809</ele>
        <time>2019-05-29T11:29:47Z</time>
      </trkpt>
      <trkpt lat="43.74146" lon="5.91549">
        <ele>488.963684</ele>
        <time>2019-05-29T11:29:54Z</time>
      </trkpt>
      <trkpt lat="43.74136" lon="5.91484">
        <ele>483.837494</ele>
        <time>2019-05-29T11:30:01Z</time>
      </trkpt>
      <trkpt lat="43.7411" lon="5.9143">
        <ele>481.817413</ele>
        <time>2019-05-29T11:30:07Z</time>
      </trkpt>
      <trkpt lat="43.74082" lon="5.91378">
        <ele>479.219025</ele>
        <time>2019-05-29T11:30:14Z</time>
      </trkpt>
      <trkpt lat="43.74054" lon="5.91316">
        <ele>474.602081</ele>
        <time>2019-05-29T11:30:21Z</time>
      </trkpt>
      <trkpt lat="43.74037" lon="5.91253">
        <ele>470.840942</ele>
        <time>2019-05-29T11:30:28Z</time>
      </trkpt>
      <trkpt lat="43.73998" lon="5.91208">
        <ele>473.665497</ele>
        <time>2019-05-29T11:30:35Z</time>
      </trkpt>
      <trkpt lat="43.73953" lon="5.91217">
        <ele>477.658112</ele>
        <time>2019-05-29T11:30:51Z</time>
      </trkpt>
      <trkpt lat="43.73945" lon="5.91163">
        <ele>479.72879</ele>
        <time>2019-05-29T11:31:09Z</time>
      </trkpt>
      <trkpt lat="43.73957" lon="5.91101">
        <ele>476.183044</ele>
        <time>2019-05-29T11:31:20Z</time>
      </trkpt>
      <trkpt lat="43.73986" lon="5.91053">
        <ele>475.998383</ele>
        <time>2019-05-29T11:31:28Z</time>
      </trkpt>
      <trkpt lat="43.73971" lon="5.91037">
        <ele>470.154816</ele>
        <time>2019-05-29T11:31:38Z</time>
      </trkpt>
      <trkpt lat="43.73924" lon="5.91059">
        <ele>464.008759</ele>
        <time>2019-05-29T11:31:46Z</time>
      </trkpt>
      <trkpt lat="43.73885" lon="5.91087">
        <ele>466.111237</ele>
        <time>2019-05-29T11:31:53Z</time>
      </trkpt>
      <trkpt lat="43.73879" lon="5.91026">
        <ele>458.965637</ele>
        <time>2019-05-29T11:32:02Z</time>
      </trkpt>
      <trkpt lat="43.73902" lon="5.90969">
        <ele>450.820923</ele>
        <time>2019-05-29T11:32:09Z</time>
      </trkpt>
      <trkpt lat="43.73915" lon="5.90906">
        <ele>445.941223</ele>
        <time>2019-05-29T11:32:16Z</time>
      </trkpt>
      <trkpt lat="43.73904" lon="5.90843">
        <ele>440.319</ele>
        <time>2019-05-29T11:32:23Z</time>
      </trkpt>
      <trkpt lat="43.73881" lon="5.90802">
        <ele>441.718018</ele>
        <time>2019-05-29T11:32:32Z</time>
      </trkpt>
      <trkpt lat="43.73929" lon="5.90777">
        <ele>432.156586</ele>
        <time>2019-05-29T11:32:39Z</time>
      </trkpt>
      <trkpt lat="43.73975" lon="5.90758">
        <ele>424.030914</ele>
        <time>2019-05-29T11:32:47Z</time>
      </trkpt>
      <trkpt lat="43.7399" lon="5.90697">
        <ele>422.139984</ele>
        <time>2019-05-29T11:32:55Z</time>
      </trkpt>
      <trkpt lat="43.74013" lon="5.90637">
        <ele>420.376404</ele>
        <time>2019-05-29T11:33:02Z</time>
      </trkpt>
      <trkpt lat="43.74065" lon="5.90616">
        <ele>413.968994</ele>
        <time>2019-05-29T11:33:09Z</time>
      </trkpt>
      <trkpt lat="43.74114" lon="5.90628">
        <ele>406.006561</ele>
        <time>2019-05-29T11:33:16Z</time>
      </trkpt>
      <trkpt lat="43.74145" lon="5.90578">
        <ele>400.252594</ele>
        <time>2019-05-29T11:33:22Z</time>
      </trkpt>
      <trkpt lat="43.74167" lon="5.90519">
        <ele>400.952942</ele>
        <time>2019-05-29T11:33:27Z</time>
      </trkpt>
      <trkpt lat="43.74181" lon="5.90457">
        <ele>396.110382</ele>
        <time>2019-05-29T11:33:32Z</time>
      </trkpt>
      <trkpt lat="43.74213" lon="5.90407">
        <ele>393.933411</ele>
        <time>2019-05-29T11:33:38Z</time>
      </trkpt>
      <trkpt lat="43.74237" lon="5.90353">
        <ele>387.673981</ele>
        <time>2019-05-29T11:33:43Z</time>
      </trkpt>
      <trkpt lat="43.74239" lon="5.90282">
        <ele>383.360321</ele>
        <time>2019-05-29T11:33:49Z</time>
      </trkpt>
      <trkpt lat="43.74223" lon="5.90217">
        <ele>386.109863</ele>
        <time>2019-05-29T11:33:55Z</time>
      </trkpt>
      <trkpt lat="43.74233" lon="5.90155">
        <ele>383.311188</ele>
        <time>2019-05-29T11:34:02Z</time>
      </trkpt>
      <trkpt lat="43.74274" lon="5.90111">
        <ele>377.793335</ele>
        <time>2019-05-29T11:34:09Z</time>
      </trkpt>
      <trkpt lat="43.74324" lon="5.90102">
        <ele>371.301697</ele>
        <time>2019-05-29T11:34:15Z</time>
      </trkpt>
      <trkpt lat="43.74364" lon="5.90075">
        <ele>367.959076</ele>
        <time>2019-05-29T11:34:20Z</time>
      </trkpt>
      <trkpt lat="43.74397" lon="5.90017">
        <ele>362.993195</ele>
        <time>2019-05-29T11:34:26Z</time>
      </trkpt>
      <trkpt lat="43.74438" lon="5.89976">
        <ele>356.423737</ele>
        <time>2019-05-29T11:34:32Z</time>
      </trkpt>
      <trkpt lat="43.74478" lon="5.89933">
        <ele>350.731262</ele>
        <time>2019-05-29T11:34:37Z</time>
      </trkpt>
      <trkpt lat="43.74512" lon="5.89888">
        <ele>346.220917</ele>
        <time>2019-05-29T11:34:42Z</time>
      </trkpt>
      <trkpt lat="43.74545" lon="5.89831">
        <ele>342.447906</ele>
        <time>2019-05-29T11:34:48Z</time>
      </trkpt>
      <trkpt lat="43.74573" lon="5.89777">
        <ele>340.311829</ele>
        <time>2019-05-29T11:34:53Z</time>
      </trkpt>
      <trkpt lat="43.74605" lon="5.89728">
        <ele>338.95694</ele>
        <time>2019-05-29T11:34:58Z</time>
      </trkpt>
      <trkpt lat="43.74652" lon="5.89704">
        <ele>336.505005</ele>
        <time>2019-05-29T11:35:04Z</time>
      </trkpt>
      <trkpt lat="43.74697" lon="5.89688">
        <ele>334.975006</ele>
        <time>2019-05-29T11:35:10Z</time>
      </trkpt>
      <trkpt lat="43.74723" lon="5.89632">
        <ele>331.697052</ele>
        <time>2019-05-29T11:35:17Z</time>
      </trkpt>
      <trkpt lat="43.7476" lon="5.89584">
        <ele>329.043152</ele>
        <time>2019-05-29T11:35:24Z</time>
      </trkpt>
      <trkpt lat="43.74789" lon="5.89529">
        <ele>327.78302</ele>
        <time>2019-05-29T11:35:30Z</time>
      </trkpt>
      <trkpt lat="43.74812" lon="5.89462">
        <ele>325.97583</ele>
        <time>2019-05-29T11:35:36Z</time>
      </trkpt>
      <trkpt lat="43.7484" lon="5.89402">
        <ele>321.932709</ele>
        <time>2019-05-29T11:35:42Z</time>
      </trkpt>
      <trkpt lat="43.74881" lon="5.89366">
        <ele>320</ele>
        <time>2019-05-29T11:35:48Z</time>
      </trkpt>
      <trkpt lat="43.74923" lon="5.89337">
        <ele>317.591003</ele>
        <time>2019-05-29T11:35:54Z</time>
      </trkpt>
      <trkpt lat="43.74967" lon="5.89306">
        <ele>317.133209</ele>
        <time>2019-05-29T11:36:01Z</time>
      </trkpt>
      <trkpt lat="43.75012" lon="5.89278">
        <ele>315.815002</ele>
        <time>2019-05-29T11:36:09Z</time>
      </trkpt>
      <trkpt lat="43.75054" lon="5.89254">
        <ele>316.125</ele>
        <time>2019-05-29T11:36:17Z</time>
      </trkpt>
      <trkpt lat="43.751" lon="5.89253">
        <ele>316.662506</ele>
        <time>2019-05-29T11:36:30Z</time>
      </trkpt>
      <trkpt lat="43.75147" lon="5.8925">
        <ele>316.570892</ele>
        <time>2019-05-29T11:36:46Z</time>
      </trkpt>
      <trkpt lat="43.75199" lon="5.89243">
        <ele>313.313629</ele>
        <time>2019-05-29T11:36:56Z</time>
      </trkpt>
      <trkpt lat="43.75238" lon="5.89204">
        <ele>312.697998</ele>
        <time>2019-05-29T11:37:03Z</time>
      </trkpt>
      <trkpt lat="43.75271" lon="5.89157">
        <ele>311.686737</ele>
        <time>2019-05-29T11:37:11Z</time>
      </trkpt>
      <trkpt lat="43.75304" lon="5.89111">
        <ele>309.498596</ele>
        <time>2019-05-29T11:37:19Z</time>
      </trkpt>
      <trkpt lat="43.75325" lon="5.89052">
        <ele>308.709839</ele>
        <time>2019-05-29T11:37:28Z</time>
      </trkpt>
      <trkpt lat="43.75319" lon="5.89101">
        <ele>306.891296</ele>
        <time>2019-05-29T11:37:42Z</time>
      </trkpt>
      <trkpt lat="43.7531" lon="5.8917">
        <ele>305.81012</ele>
        <time>2019-05-29T11:37:49Z</time>
      </trkpt>
      <trkpt lat="43.75294" lon="5.89233">
        <ele>305.54303</ele>
        <time>2019-05-29T11:37:57Z</time>
      </trkpt>
      <trkpt lat="43.75263" lon="5.89285">
        <ele>305.839203</ele>
        <time>2019-05-29T11:38:07Z</time>
      </trkpt>
      <trkpt lat="43.75228" lon="5.89333">
        <ele>304.835663</ele>
        <time>2019-05-29T11:38:17Z</time>
      </trkpt>
      <trkpt lat="43.75194" lon="5.89376">
        <ele>303.77121</ele>
        <time>2019-05-29T11:38:27Z</time>
      </trkpt>
      <trkpt lat="43.7519" lon="5.89439">
        <ele>302.45105</ele>
        <time>2019-05-29T11:38:40Z</time>
      </trkpt>
      <trkpt lat="43.75168" lon="5.89478">
        <ele>302.132294</ele>
        <time>2019-05-29T11:38:56Z</time>
      </trkpt>
      <trkpt lat="43.7514" lon="5.8952">
        <ele>302.217743</ele>
        <time>2019-05-29T11:39:07Z</time>
      </trkpt>
      <trkpt lat="43.75147" lon="5.89571">
        <ele>302.5625</ele>
        <time>2019-05-29T11:39:19Z</time>
      </trkpt>
      <trkpt lat="43.75059" lon="5.89735">
        <ele>305.769623</ele>
        <time>2019-05-29T13:23:48Z</time>
      </trkpt>
    </trkseg>
  </trk>
</gpx>